PWSweather.com
Personal Weather Stations
Station Observations
MENWDWX1
Menstrie, ScotlandGB

MenstrieScotlandGB

Lat: 56.148322, Lon: -3.85483

Elevation: 62

Station Type: Davis Vantage Pro 2

High Low Average
Temperature 49.3°F9.6°C 30.2°F-1.0°C 39.9°F4.4°C
Dew Point 35.8°F2.1°C 24.4°F-4.2°C 31.4°F-0.3°C
Winds 9.2 mph 14.8 kmh Calm Calm 3.0 mph S4.8 kmh S
Wind Gusts 13.8 mph22.2 kmh -- 5.0 mph8.0 kmh
Humidity 80% 52% 72%
Pressure 30.34 in1027.4 mb 30.12 in1020.0 mb -
Precipitation 0.00 in0.0 mm - -
Hour Temp Dew Point Humidity Winds Wind Gusts Pressure Precip Precip Rate Daily Precip Total
12:00 AM 41.4°F5.2°C 33.1°F0.6°C 72% 6.9 mph N11.1 kmh N 12.7 mph20.4 kmh 30.32 in1026.8 mb - 0.00 in0.0 mm 0.00 in0.0 mm
12:05 AM 41.1°F5.1°C 33.1°F0.6°C 73% 8.1 mph N13.0 kmh N 9.2 mph14.8 kmh 30.32 in1026.8 mb - 0.00 in0.0 mm 0.00 in0.0 mm
12:10 AM 40.8°F4.9°C 32.8°F0.4°C 73% 5.8 mph N9.3 kmh N 8.1 mph13.0 kmh 30.32 in1026.8 mb - 0.00 in0.0 mm 0.00 in0.0 mm
12:15 AM 40.4°F4.7°C 32.8°F0.4°C 74% 5.8 mph N9.3 kmh N 8.1 mph13.0 kmh 30.32 in1026.8 mb - 0.00 in0.0 mm 0.00 in0.0 mm
12:20 AM 39.9°F4.4°C 32.6°F0.3°C 75% 5.8 mph N9.3 kmh N 8.1 mph13.0 kmh 30.32 in1026.8 mb - 0.00 in0.0 mm 0.00 in0.0 mm
12:25 AM 39.6°F4.2°C 32.3°F0.2°C 75% 4.6 mph N7.4 kmh N 6.9 mph11.1 kmh 30.32 in1026.8 mb - 0.00 in0.0 mm 0.00 in0.0 mm
12:30 AM 39.4°F4.1°C 32.5°F0.3°C 76% 3.5 mph N5.6 kmh N 6.9 mph11.1 kmh 30.32 in1026.8 mb - 0.00 in0.0 mm 0.00 in0.0 mm
12:35 AM 39.2°F4.0°C 32.3°F0.2°C 76% 4.6 mph N7.4 kmh N 8.1 mph13.0 kmh 30.32 in1026.8 mb - 0.00 in0.0 mm 0.00 in0.0 mm
12:40 AM 39.1°F3.9°C 32.2°F0.1°C 76% 2.3 mph NNE3.7 kmh NNE 3.5 mph5.6 kmh 30.32 in1026.8 mb - 0.00 in0.0 mm 0.00 in0.0 mm
12:45 AM 39.3°F4.1°C 32.4°F0.2°C 76% 4.6 mph N7.4 kmh N 8.1 mph13.0 kmh 30.32 in1026.8 mb - 0.00 in0.0 mm 0.00 in0.0 mm
12:50 AM 39.7°F4.3°C 32.7°F0.4°C 76% 3.5 mph NNE5.6 kmh NNE 4.6 mph7.4 kmh 30.32 in1026.8 mb - 0.00 in0.0 mm 0.00 in0.0 mm
12:55 AM 39.8°F4.3°C 32.5°F0.3°C 75% 4.6 mph NNE7.4 kmh NNE 5.8 mph9.3 kmh 30.32 in1026.8 mb - 0.00 in0.0 mm 0.00 in0.0 mm
01:00 AM 39.8°F4.3°C 32.5°F0.3°C 75% 3.5 mph N5.6 kmh N 8.1 mph13.0 kmh 30.32 in1026.8 mb - 0.00 in0.0 mm 0.00 in0.0 mm
01:05 AM 39.9°F4.4°C 32.6°F0.3°C 75% 6.9 mph N11.1 kmh N 9.2 mph14.8 kmh 30.32 in1026.8 mb - 0.00 in0.0 mm 0.00 in0.0 mm
01:10 AM 40.1°F4.5°C 32.8°F0.4°C 75% 3.5 mph NNE5.6 kmh NNE 5.8 mph9.3 kmh 30.32 in1026.8 mb - 0.00 in0.0 mm 0.00 in0.0 mm
01:15 AM 40.1°F4.5°C 32.8°F0.4°C 75% 6.9 mph NNE11.1 kmh NNE 10.4 mph16.7 kmh 30.32 in1026.8 mb - 0.00 in0.0 mm 0.00 in0.0 mm
01:20 AM 40.4°F4.7°C 32.8°F0.4°C 74% 5.8 mph NNE9.3 kmh NNE 11.5 mph18.5 kmh 30.32 in1026.8 mb - 0.00 in0.0 mm 0.00 in0.0 mm
01:25 AM 40.8°F4.9°C 33.1°F0.6°C 74% 4.6 mph NE7.4 kmh NE 8.1 mph13.0 kmh 30.32 in1026.8 mb - 0.00 in0.0 mm 0.00 in0.0 mm
01:30 AM 40.9°F4.9°C 32.9°F0.5°C 73% 8.1 mph NNE13.0 kmh NNE 13.8 mph22.2 kmh 30.32 in1026.8 mb - 0.00 in0.0 mm 0.00 in0.0 mm
01:35 AM 40.8°F4.9°C 32.8°F0.4°C 73% 4.6 mph NNW7.4 kmh NNW 4.6 mph7.4 kmh 30.32 in1026.8 mb - 0.00 in0.0 mm 0.00 in0.0 mm
01:40 AM 40.6°F4.8°C 32.6°F0.3°C 73% 3.5 mph NW5.6 kmh NW 3.5 mph5.6 kmh 30.32 in1026.8 mb - 0.00 in0.0 mm 0.00 in0.0 mm
01:45 AM 40.4°F4.7°C 32.7°F0.4°C 74% 4.6 mph NNW7.4 kmh NNW 5.8 mph9.3 kmh 30.32 in1026.8 mb - 0.00 in0.0 mm 0.00 in0.0 mm
01:50 AM 40.3°F4.6°C 32.7°F0.4°C 74% 3.5 mph NNW5.6 kmh NNW 4.6 mph7.4 kmh 30.33 in1027.1 mb - 0.00 in0.0 mm 0.00 in0.0 mm
01:55 AM 40.1°F4.5°C 32.8°F0.4°C 75% 5.8 mph NW9.3 kmh NW 11.5 mph18.5 kmh 30.33 in1027.1 mb - 0.00 in0.0 mm 0.00 in0.0 mm
02:00 AM 40.1°F4.5°C 32.8°F0.4°C 75% 3.5 mph WNW5.6 kmh WNW 4.6 mph7.4 kmh 30.33 in1027.1 mb - 0.00 in0.0 mm 0.00 in0.0 mm
02:05 AM 39.8°F4.3°C 32.5°F0.3°C 75% 4.6 mph WNW7.4 kmh WNW 9.2 mph14.8 kmh 30.33 in1027.1 mb - 0.00 in0.0 mm 0.00 in0.0 mm
02:10 AM 39.7°F4.3°C 32.8°F0.4°C 76% 4.6 mph NW7.4 kmh NW 9.2 mph14.8 kmh 30.33 in1027.1 mb - 0.00 in0.0 mm 0.00 in0.0 mm
02:15 AM 39.7°F4.3°C 32.8°F0.4°C 76% 3.5 mph NW5.6 kmh NW 4.6 mph7.4 kmh 30.33 in1027.1 mb - 0.00 in0.0 mm 0.00 in0.0 mm
02:20 AM 39.8°F4.3°C 32.8°F0.4°C 76% 4.6 mph NW7.4 kmh NW 8.1 mph13.0 kmh 30.33 in1027.1 mb - 0.00 in0.0 mm 0.00 in0.0 mm
02:25 AM 39.5°F4.2°C 32.6°F0.3°C 76% 4.6 mph N7.4 kmh N 5.8 mph9.3 kmh 30.33 in1027.1 mb - 0.00 in0.0 mm 0.00 in0.0 mm
02:30 AM 39.1°F3.9°C 32.2°F0.1°C 76% 4.6 mph N7.4 kmh N 9.2 mph14.8 kmh 30.33 in1027.1 mb - 0.00 in0.0 mm 0.00 in0.0 mm
02:35 AM 38.7°F3.7°C 32.1°F0.1°C 77% 3.5 mph N5.6 kmh N 4.6 mph7.4 kmh 30.33 in1027.1 mb - 0.00 in0.0 mm 0.00 in0.0 mm
02:40 AM 38.4°F3.6°C 31.8°F-0.1°C 77% 3.5 mph NNW5.6 kmh NNW 3.5 mph5.6 kmh 30.33 in1027.1 mb - 0.00 in0.0 mm 0.00 in0.0 mm
02:45 AM 38.3°F3.5°C 31.7°F-0.2°C 77% 3.5 mph N5.6 kmh N 4.6 mph7.4 kmh 30.34 in1027.4 mb - 0.00 in0.0 mm 0.00 in0.0 mm
02:50 AM 38.2°F3.4°C 31.6°F-0.2°C 77% 2.3 mph N3.7 kmh N 3.5 mph5.6 kmh 30.34 in1027.4 mb - 0.00 in0.0 mm 0.00 in0.0 mm
02:55 AM 38.1°F3.4°C 31.8°F-0.1°C 78% 2.3 mph NNW3.7 kmh NNW 3.5 mph5.6 kmh 30.34 in1027.4 mb - 0.00 in0.0 mm 0.00 in0.0 mm
03:00 AM 38.1°F3.4°C 31.8°F-0.1°C 78% 1.2 mph NNW1.9 kmh NNW 3.5 mph5.6 kmh 30.34 in1027.4 mb - 0.00 in0.0 mm 0.00 in0.0 mm
03:05 AM 38.2°F3.4°C 31.6°F-0.2°C 77% 2.3 mph W3.7 kmh W 3.5 mph5.6 kmh 30.34 in1027.4 mb - 0.00 in0.0 mm 0.00 in0.0 mm
03:10 AM 37.9°F3.3°C 31.3°F-0.4°C 77% 2.3 mph NW3.7 kmh NW 4.6 mph7.4 kmh 30.34 in1027.4 mb - 0.00 in0.0 mm 0.00 in0.0 mm
03:15 AM 37.7°F3.2°C 31.4°F-0.3°C 78% 3.5 mph NW5.6 kmh NW 3.5 mph5.6 kmh 30.34 in1027.4 mb - 0.00 in0.0 mm 0.00 in0.0 mm
03:20 AM 37.4°F3.0°C 31.2°F-0.4°C 78% 3.5 mph NW5.6 kmh NW 4.6 mph7.4 kmh 30.34 in1027.4 mb - 0.00 in0.0 mm 0.00 in0.0 mm
03:25 AM 37.0°F2.8°C 30.8°F-0.7°C 78% 5.8 mph NNW9.3 kmh NNW 5.8 mph9.3 kmh 30.34 in1027.4 mb - 0.00 in0.0 mm 0.00 in0.0 mm
03:30 AM 36.9°F2.7°C 31.0°F-0.6°C 79% 4.6 mph NNW7.4 kmh NNW 4.6 mph7.4 kmh 30.33 in1027.1 mb - 0.00 in0.0 mm 0.00 in0.0 mm
03:35 AM 37.0°F2.8°C 31.1°F-0.5°C 79% 5.8 mph NNW9.3 kmh NNW 9.2 mph14.8 kmh 30.33 in1027.1 mb - 0.00 in0.0 mm 0.00 in0.0 mm
03:40 AM 37.1°F2.8°C 31.2°F-0.4°C 79% 6.9 mph N11.1 kmh N 10.4 mph16.7 kmh 30.33 in1027.1 mb - 0.00 in0.0 mm 0.00 in0.0 mm
03:45 AM 37.3°F2.9°C 31.1°F-0.5°C 78% 5.8 mph N9.3 kmh N 9.2 mph14.8 kmh 30.33 in1027.1 mb - 0.00 in0.0 mm 0.00 in0.0 mm
03:50 AM 37.4°F3.0°C 31.2°F-0.4°C 78% 5.8 mph N9.3 kmh N 10.4 mph16.7 kmh 30.33 in1027.1 mb - 0.00 in0.0 mm 0.00 in0.0 mm
03:55 AM 37.3°F2.9°C 31.1°F-0.5°C 78% 5.8 mph N9.3 kmh N 10.4 mph16.7 kmh 30.33 in1027.1 mb - 0.00 in0.0 mm 0.00 in0.0 mm
04:00 AM 37.4°F3.0°C 31.1°F-0.5°C 78% 8.1 mph NW13.0 kmh NW 12.7 mph20.4 kmh 30.33 in1027.1 mb - 0.00 in0.0 mm 0.00 in0.0 mm
04:05 AM 38.2°F3.4°C 31.9°F-0.1°C 78% 5.8 mph NNW9.3 kmh NNW 10.4 mph16.7 kmh 30.33 in1027.1 mb - 0.00 in0.0 mm 0.00 in0.0 mm
04:10 AM 38.6°F3.7°C 32.0°F0.0°C 77% 4.6 mph N7.4 kmh N 9.2 mph14.8 kmh 30.33 in1027.1 mb - 0.00 in0.0 mm 0.00 in0.0 mm
04:15 AM 38.7°F3.7°C 31.8°F-0.1°C 76% 5.8 mph N9.3 kmh N 9.2 mph14.8 kmh 30.33 in1027.1 mb - 0.00 in0.0 mm 0.00 in0.0 mm
04:20 AM 38.7°F3.7°C 31.8°F-0.1°C 76% 5.8 mph N9.3 kmh N 9.2 mph14.8 kmh 30.32 in1026.8 mb - 0.00 in0.0 mm 0.00 in0.0 mm
04:25 AM 38.5°F3.6°C 31.6°F-0.2°C 76% 4.6 mph NNW7.4 kmh NNW 5.8 mph9.3 kmh 30.33 in1027.1 mb - 0.00 in0.0 mm 0.00 in0.0 mm
04:30 AM 38.4°F3.6°C 31.5°F-0.3°C 76% 2.3 mph NNW3.7 kmh NNW 3.5 mph5.6 kmh 30.33 in1027.1 mb - 0.00 in0.0 mm 0.00 in0.0 mm
04:35 AM 38.1°F3.4°C 31.3°F-0.4°C 76% 3.5 mph NW5.6 kmh NW 3.5 mph5.6 kmh 30.33 in1027.1 mb - 0.00 in0.0 mm 0.00 in0.0 mm
04:40 AM 37.9°F3.3°C 31.3°F-0.4°C 77% 2.3 mph NW3.7 kmh NW 3.5 mph5.6 kmh 30.33 in1027.1 mb - 0.00 in0.0 mm 0.00 in0.0 mm
04:45 AM 37.8°F3.2°C 31.2°F-0.4°C 77% 2.3 mph WNW3.7 kmh WNW 3.5 mph5.6 kmh 30.33 in1027.1 mb - 0.00 in0.0 mm 0.00 in0.0 mm
04:50 AM 37.6°F3.1°C 31.0°F-0.6°C 77% 2.3 mph NW3.7 kmh NW 3.5 mph5.6 kmh 30.33 in1027.1 mb - 0.00 in0.0 mm 0.00 in0.0 mm
04:55 AM 37.4°F3.0°C 31.2°F-0.4°C 78% 2.3 mph N3.7 kmh N 3.5 mph5.6 kmh 30.33 in1027.1 mb - 0.00 in0.0 mm 0.00 in0.0 mm
05:00 AM 37.2°F2.9°C 30.7°F-0.7°C 77% 2.3 mph SE3.7 kmh SE 3.5 mph5.6 kmh 30.34 in1027.4 mb - 0.00 in0.0 mm 0.00 in0.0 mm
05:05 AM 36.7°F2.6°C 30.5°F-0.8°C 78% 2.3 mph SSW3.7 kmh SSW 3.5 mph5.6 kmh 30.34 in1027.4 mb - 0.00 in0.0 mm 0.00 in0.0 mm
05:10 AM 35.6°F2.0°C 29.5°F-1.4°C 78% 2.3 mph WSW3.7 kmh WSW 3.5 mph5.6 kmh 30.33 in1027.1 mb - 0.00 in0.0 mm 0.00 in0.0 mm
05:15 AM 35.0°F1.7°C 29.1°F-1.6°C 79% 2.3 mph WSW3.7 kmh WSW 3.5 mph5.6 kmh 30.33 in1027.1 mb - 0.00 in0.0 mm 0.00 in0.0 mm
05:20 AM 34.5°F1.4°C 29.0°F-1.7°C 80% 3.5 mph WSW5.6 kmh WSW 4.6 mph7.4 kmh 30.33 in1027.1 mb - 0.00 in0.0 mm 0.00 in0.0 mm
05:25 AM 34.3°F1.3°C 28.8°F-1.8°C 80% 2.3 mph WSW3.7 kmh WSW 3.5 mph5.6 kmh 30.33 in1027.1 mb - 0.00 in0.0 mm 0.00 in0.0 mm
05:30 AM 34.3°F1.3°C 28.7°F-1.8°C 80% 3.5 mph W5.6 kmh W 6.9 mph11.1 kmh 30.33 in1027.1 mb - 0.00 in0.0 mm 0.00 in0.0 mm
05:35 AM 34.3°F1.3°C 28.8°F-1.8°C 80% 1.2 mph WSW1.9 kmh WSW 4.6 mph7.4 kmh 30.33 in1027.1 mb - 0.00 in0.0 mm 0.00 in0.0 mm
05:40 AM 34.4°F1.3°C 28.9°F-1.7°C 80% 3.5 mph WSW5.6 kmh WSW 5.8 mph9.3 kmh 30.33 in1027.1 mb - 0.00 in0.0 mm 0.00 in0.0 mm
05:45 AM 34.6°F1.4°C 29.1°F-1.6°C 80% 3.5 mph WSW5.6 kmh WSW 5.8 mph9.3 kmh 30.33 in1027.1 mb - 0.00 in0.0 mm 0.00 in0.0 mm
05:50 AM 34.5°F1.4°C 28.9°F-1.7°C 80% 4.6 mph WSW7.4 kmh WSW 8.1 mph13.0 kmh 30.33 in1027.1 mb - 0.00 in0.0 mm 0.00 in0.0 mm
05:55 AM 34.3°F1.3°C 28.8°F-1.8°C 80% 4.6 mph W7.4 kmh W 6.9 mph11.1 kmh 30.33 in1027.1 mb - 0.00 in0.0 mm 0.00 in0.0 mm
06:00 AM 34.2°F1.2°C 28.7°F-1.8°C 80% 5.8 mph WSW9.3 kmh WSW 8.1 mph13.0 kmh 30.33 in1027.1 mb - 0.00 in0.0 mm 0.00 in0.0 mm
06:05 AM 34.5°F1.4°C 29.0°F-1.7°C 80% 4.6 mph WSW7.4 kmh WSW 6.9 mph11.1 kmh 30.33 in1027.1 mb - 0.00 in0.0 mm 0.00 in0.0 mm
06:10 AM 34.7°F1.5°C 29.2°F-1.6°C 80% 4.6 mph WSW7.4 kmh WSW 5.8 mph9.3 kmh 30.33 in1027.1 mb - 0.00 in0.0 mm 0.00 in0.0 mm
06:15 AM 34.9°F1.6°C 29.4°F-1.4°C 80% 4.6 mph WSW7.4 kmh WSW 6.9 mph11.1 kmh 30.33 in1027.1 mb - 0.00 in0.0 mm 0.00 in0.0 mm
06:20 AM 35.5°F1.9°C 29.9°F-1.2°C 80% 2.3 mph W3.7 kmh W 3.5 mph5.6 kmh 30.33 in1027.1 mb - 0.00 in0.0 mm 0.00 in0.0 mm
06:25 AM 35.5°F1.9°C 30.0°F-1.1°C 80% 1.2 mph W1.9 kmh W 3.5 mph5.6 kmh 30.33 in1027.1 mb - 0.00 in0.0 mm 0.00 in0.0 mm
06:30 AM 35.3°F1.8°C 29.7°F-1.3°C 80% 2.3 mph W3.7 kmh W 3.5 mph5.6 kmh 30.33 in1027.1 mb - 0.00 in0.0 mm 0.00 in0.0 mm
06:35 AM 35.0°F1.7°C 29.5°F-1.4°C 80% 2.3 mph WSW3.7 kmh WSW 6.9 mph11.1 kmh 30.33 in1027.1 mb - 0.00 in0.0 mm 0.00 in0.0 mm
06:40 AM 35.0°F1.7°C 29.5°F-1.4°C 80% 3.5 mph W5.6 kmh W 3.5 mph5.6 kmh 30.33 in1027.1 mb - 0.00 in0.0 mm 0.00 in0.0 mm
06:45 AM 35.0°F1.7°C 29.5°F-1.4°C 80% 4.6 mph W7.4 kmh W 6.9 mph11.1 kmh 30.33 in1027.1 mb - 0.00 in0.0 mm 0.00 in0.0 mm
06:50 AM 35.2°F1.8°C 29.6°F-1.3°C 80% 2.3 mph W3.7 kmh W 3.5 mph5.6 kmh 30.33 in1027.1 mb - 0.00 in0.0 mm 0.00 in0.0 mm
06:55 AM 35.1°F1.7°C 29.6°F-1.3°C 80% 1.2 mph W1.9 kmh W 1.2 mph1.9 kmh 30.33 in1027.1 mb - 0.00 in0.0 mm 0.00 in0.0 mm
07:00 AM 34.9°F1.6°C 29.4°F-1.4°C 80% 3.5 mph N5.6 kmh N 4.6 mph7.4 kmh 30.33 in1027.1 mb - 0.00 in0.0 mm 0.00 in0.0 mm
07:05 AM 35.0°F1.7°C 29.4°F-1.4°C 80% 4.6 mph N7.4 kmh N 6.9 mph11.1 kmh 30.33 in1027.1 mb - 0.00 in0.0 mm 0.00 in0.0 mm
07:10 AM 35.1°F1.7°C 29.6°F-1.3°C 80% 2.3 mph N3.7 kmh N 3.5 mph5.6 kmh 30.33 in1027.1 mb - 0.00 in0.0 mm 0.00 in0.0 mm
07:15 AM 35.0°F1.7°C 29.5°F-1.4°C 80% 2.3 mph NW3.7 kmh NW 3.5 mph5.6 kmh 30.33 in1027.1 mb - 0.00 in0.0 mm 0.00 in0.0 mm
07:20 AM 35.1°F1.7°C 29.6°F-1.3°C 80% 3.5 mph WNW5.6 kmh WNW 3.5 mph5.6 kmh 30.33 in1027.1 mb - 0.00 in0.0 mm 0.00 in0.0 mm
07:25 AM 35.5°F1.9°C 29.9°F-1.2°C 80% 3.5 mph NW5.6 kmh NW 6.9 mph11.1 kmh 30.33 in1027.1 mb - 0.00 in0.0 mm 0.00 in0.0 mm
07:30 AM 35.6°F2.0°C 30.0°F-1.1°C 80% 2.3 mph NW3.7 kmh NW 3.5 mph5.6 kmh 30.33 in1027.1 mb - 0.00 in0.0 mm 0.00 in0.0 mm
07:35 AM 35.7°F2.1°C 30.1°F-1.1°C 80% 2.3 mph SW3.7 kmh SW 4.6 mph7.4 kmh 30.33 in1027.1 mb - 0.00 in0.0 mm 0.00 in0.0 mm
07:40 AM 35.5°F1.9°C 29.6°F-1.3°C 79% 3.5 mph WSW5.6 kmh WSW 3.5 mph5.6 kmh 30.34 in1027.4 mb - 0.00 in0.0 mm 0.00 in0.0 mm
07:45 AM 35.3°F1.8°C 29.4°F-1.4°C 79% 2.3 mph WSW3.7 kmh WSW 3.5 mph5.6 kmh 30.34 in1027.4 mb - 0.00 in0.0 mm 0.00 in0.0 mm
07:50 AM 35.2°F1.8°C 29.6°F-1.3°C 80% 2.3 mph W3.7 kmh W 3.5 mph5.6 kmh 30.33 in1027.1 mb - 0.00 in0.0 mm 0.00 in0.0 mm
07:55 AM 35.8°F2.1°C 30.2°F-1.0°C 80% 5.8 mph WSW9.3 kmh WSW 8.1 mph13.0 kmh 30.33 in1027.1 mb - 0.00 in0.0 mm 0.00 in0.0 mm
08:00 AM 36.3°F2.4°C 30.8°F-0.7°C 80% 3.5 mph W5.6 kmh W 5.8 mph9.3 kmh 30.33 in1027.1 mb - 0.00 in0.0 mm 0.00 in0.0 mm
08:05 AM 36.6°F2.6°C 30.7°F-0.7°C 79% 3.5 mph WSW5.6 kmh WSW 3.5 mph5.6 kmh 30.33 in1027.1 mb - 0.00 in0.0 mm 0.00 in0.0 mm
08:10 AM 36.9°F2.7°C 31.0°F-0.6°C 79% 4.6 mph WSW7.4 kmh WSW 9.2 mph14.8 kmh 30.34 in1027.4 mb - 0.00 in0.0 mm 0.00 in0.0 mm
08:15 AM 37.1°F2.8°C 30.9°F-0.6°C 78% 4.6 mph WSW7.4 kmh WSW 8.1 mph13.0 kmh 30.34 in1027.4 mb - 0.00 in0.0 mm 0.00 in0.0 mm
08:20 AM 37.3°F2.9°C 31.1°F-0.5°C 78% 3.5 mph WSW5.6 kmh WSW 8.1 mph13.0 kmh 30.34 in1027.4 mb - 0.00 in0.0 mm 0.00 in0.0 mm
08:25 AM 37.7°F3.2°C 31.4°F-0.3°C 78% 3.5 mph SW5.6 kmh SW 3.5 mph5.6 kmh 30.34 in1027.4 mb - 0.00 in0.0 mm 0.00 in0.0 mm
08:30 AM 38.2°F3.4°C 31.9°F-0.1°C 78% 2.3 mph WSW3.7 kmh WSW 3.5 mph5.6 kmh 30.34 in1027.4 mb - 0.00 in0.0 mm 0.00 in0.0 mm
08:35 AM 38.8°F3.8°C 32.2°F0.1°C 77% 3.5 mph SW5.6 kmh SW 3.5 mph5.6 kmh 30.34 in1027.4 mb - 0.00 in0.0 mm 0.00 in0.0 mm
08:40 AM 39.5°F4.2°C 32.2°F0.1°C 75% 2.3 mph WSW3.7 kmh WSW 3.5 mph5.6 kmh 30.34 in1027.4 mb - 0.00 in0.0 mm 0.00 in0.0 mm
08:45 AM 39.8°F4.3°C 32.5°F0.3°C 75% 2.3 mph W3.7 kmh W 3.5 mph5.6 kmh 30.34 in1027.4 mb - 0.00 in0.0 mm 0.00 in0.0 mm
08:50 AM 39.9°F4.4°C 32.6°F0.3°C 75% 3.5 mph W5.6 kmh W 6.9 mph11.1 kmh 30.34 in1027.4 mb - 0.00 in0.0 mm 0.00 in0.0 mm
08:55 AM 40.0°F4.4°C 32.7°F0.4°C 75% 4.6 mph WSW7.4 kmh WSW 6.9 mph11.1 kmh 30.34 in1027.4 mb - 0.00 in0.0 mm 0.00 in0.0 mm
09:00 AM 40.0°F4.4°C 32.7°F0.4°C 75% 4.6 mph NW7.4 kmh NW 9.2 mph14.8 kmh 30.34 in1027.4 mb - 0.00 in0.0 mm 0.00 in0.0 mm
09:05 AM 40.0°F4.4°C 32.7°F0.4°C 75% 5.8 mph W9.3 kmh W 5.8 mph9.3 kmh 30.34 in1027.4 mb - 0.00 in0.0 mm 0.00 in0.0 mm
09:10 AM 40.0°F4.4°C 32.7°F0.4°C 75% 3.5 mph NW5.6 kmh NW 3.5 mph5.6 kmh 30.34 in1027.4 mb - 0.00 in0.0 mm 0.00 in0.0 mm
09:15 AM 40.2°F4.6°C 33.2°F0.7°C 76% 3.5 mph W5.6 kmh W 6.9 mph11.1 kmh 30.34 in1027.4 mb - 0.00 in0.0 mm 0.00 in0.0 mm
09:20 AM 40.6°F4.8°C 33.3°F0.7°C 75% 4.6 mph NW7.4 kmh NW 6.9 mph11.1 kmh 30.34 in1027.4 mb - 0.00 in0.0 mm 0.00 in0.0 mm
09:25 AM 40.8°F4.9°C 33.2°F0.7°C 74% 2.3 mph WSW3.7 kmh WSW 6.9 mph11.1 kmh 30.34 in1027.4 mb - 0.00 in0.0 mm 0.00 in0.0 mm
09:30 AM 41.4°F5.2°C 33.4°F0.8°C 73% 1.2 mph SW1.9 kmh SW 1.2 mph1.9 kmh 30.34 in1027.4 mb - 0.00 in0.0 mm 0.00 in0.0 mm
09:35 AM 41.8°F5.4°C 33.4°F0.8°C 72% 3.5 mph WSW5.6 kmh WSW 4.6 mph7.4 kmh 30.34 in1027.4 mb - 0.00 in0.0 mm 0.00 in0.0 mm
09:40 AM 42.1°F5.6°C 33.4°F0.8°C 71% 2.3 mph SW3.7 kmh SW 4.6 mph7.4 kmh 30.34 in1027.4 mb - 0.00 in0.0 mm 0.00 in0.0 mm
09:45 AM 42.4°F5.8°C 33.3°F0.7°C 70% 3.5 mph WSW5.6 kmh WSW 6.9 mph11.1 kmh 30.34 in1027.4 mb - 0.00 in0.0 mm 0.00 in0.0 mm
09:50 AM 42.8°F6.0°C 33.0°F0.6°C 68% 2.3 mph WSW3.7 kmh WSW 4.6 mph7.4 kmh 30.33 in1027.1 mb - 0.00 in0.0 mm 0.00 in0.0 mm
09:55 AM 43.1°F6.2°C 32.9°F0.5°C 67% 2.3 mph SSW3.7 kmh SSW 6.9 mph11.1 kmh 30.33 in1027.1 mb - 0.00 in0.0 mm 0.00 in0.0 mm
10:00 AM 43.3°F6.3°C 33.1°F0.6°C 67% 2.3 mph SSW3.7 kmh SSW 3.5 mph5.6 kmh 30.33 in1027.1 mb - 0.00 in0.0 mm 0.00 in0.0 mm
10:05 AM 43.3°F6.3°C 34.2°F1.2°C 70% 5.8 mph WSW9.3 kmh WSW 6.9 mph11.1 kmh 30.33 in1027.1 mb - 0.00 in0.0 mm 0.00 in0.0 mm
10:10 AM 42.8°F6.0°C 34.0°F1.1°C 71% 3.5 mph WSW5.6 kmh WSW 3.5 mph5.6 kmh 30.33 in1027.1 mb - 0.00 in0.0 mm 0.00 in0.0 mm
10:15 AM 42.5°F5.8°C 34.1°F1.2°C 72% 3.5 mph WSW5.6 kmh WSW 6.9 mph11.1 kmh 30.33 in1027.1 mb - 0.00 in0.0 mm 0.00 in0.0 mm
10:20 AM 42.7°F5.9°C 34.0°F1.1°C 71% 2.3 mph WSW3.7 kmh WSW 6.9 mph11.1 kmh 30.33 in1027.1 mb - 0.00 in0.0 mm 0.00 in0.0 mm
10:25 AM 43.2°F6.2°C 34.0°F1.1°C 70% 2.3 mph WSW3.7 kmh WSW 3.5 mph5.6 kmh 30.33 in1027.1 mb - 0.00 in0.0 mm 0.00 in0.0 mm
10:30 AM 43.6°F6.4°C 34.1°F1.2°C 69% 1.2 mph SW1.9 kmh SW 2.3 mph3.7 kmh 30.32 in1026.8 mb - 0.00 in0.0 mm 0.00 in0.0 mm
10:35 AM 44.3°F6.8°C 34.1°F1.2°C 67% 1.2 mph SW1.9 kmh SW 2.3 mph3.7 kmh 30.32 in1026.8 mb - 0.00 in0.0 mm 0.00 in0.0 mm
10:40 AM 45.4°F7.4°C 34.3°F1.3°C 65% 1.2 mph WSW1.9 kmh WSW 3.5 mph5.6 kmh 30.32 in1026.8 mb - 0.00 in0.0 mm 0.00 in0.0 mm
10:45 AM 46.1°F7.8°C 35.4°F1.9°C 66% 2.3 mph SW3.7 kmh SW 3.5 mph5.6 kmh 30.32 in1026.8 mb - 0.00 in0.0 mm 0.00 in0.0 mm
10:50 AM 46.7°F8.2°C 35.5°F1.9°C 65% 2.3 mph W3.7 kmh W 3.5 mph5.6 kmh 30.32 in1026.8 mb - 0.00 in0.0 mm 0.00 in0.0 mm
10:55 AM 47.0°F8.3°C 35.1°F1.7°C 63% 4.6 mph SW7.4 kmh SW 5.8 mph9.3 kmh 30.32 in1026.8 mb - 0.00 in0.0 mm 0.00 in0.0 mm
11:00 AM 47.4°F8.6°C 35.8°F2.1°C 64% 2.3 mph WSW3.7 kmh WSW 3.5 mph5.6 kmh 30.32 in1026.8 mb - 0.00 in0.0 mm 0.00 in0.0 mm
11:05 AM 47.4°F8.6°C 34.2°F1.2°C 60% 3.5 mph WSW5.6 kmh WSW 4.6 mph7.4 kmh 30.32 in1026.8 mb - 0.00 in0.0 mm 0.00 in0.0 mm
11:10 AM 47.5°F8.6°C 33.9°F1.1°C 59% 1.2 mph W1.9 kmh W 1.2 mph1.9 kmh 30.31 in1026.4 mb - 0.00 in0.0 mm 0.00 in0.0 mm
11:15 AM 47.6°F8.7°C 34.0°F1.1°C 59% 2.3 mph NW3.7 kmh NW 3.5 mph5.6 kmh 30.31 in1026.4 mb - 0.00 in0.0 mm 0.00 in0.0 mm
11:20 AM 47.7°F8.7°C 33.6°F0.9°C 58% 4.6 mph NE7.4 kmh NE 4.6 mph7.4 kmh 30.31 in1026.4 mb - 0.00 in0.0 mm 0.00 in0.0 mm
11:25 AM 48.0°F8.9°C 34.3°F1.3°C 59% 3.5 mph WSW5.6 kmh WSW 3.5 mph5.6 kmh 30.31 in1026.4 mb - 0.00 in0.0 mm 0.00 in0.0 mm
11:30 AM 48.4°F9.1°C 34.3°F1.3°C 58% 3.5 mph NE5.6 kmh NE 4.6 mph7.4 kmh 30.30 in1026.1 mb - 0.00 in0.0 mm 0.00 in0.0 mm
11:35 AM 48.6°F9.2°C 34.0°F1.1°C 57% 2.3 mph NW3.7 kmh NW 3.5 mph5.6 kmh 30.30 in1026.1 mb - 0.00 in0.0 mm 0.00 in0.0 mm
11:40 AM 48.5°F9.2°C 33.9°F1.1°C 57% Calm Calm 1.2 mph1.9 kmh 30.30 in1026.1 mb - 0.00 in0.0 mm 0.00 in0.0 mm
11:45 AM 48.7°F9.3°C 34.1°F1.2°C 57% 3.5 mph NW5.6 kmh NW 3.5 mph5.6 kmh 30.30 in1026.1 mb - 0.00 in0.0 mm 0.00 in0.0 mm
11:50 AM 48.7°F9.3°C 34.1°F1.2°C 57% 2.3 mph NNW3.7 kmh NNW 3.5 mph5.6 kmh 30.29 in1025.7 mb - 0.00 in0.0 mm 0.00 in0.0 mm
11:55 AM 49.3°F9.6°C 34.7°F1.5°C 57% 4.6 mph WNW7.4 kmh WNW 6.9 mph11.1 kmh 30.29 in1025.7 mb - 0.00 in0.0 mm 0.00 in0.0 mm
12:00 PM 49.2°F9.6°C 34.2°F1.2°C 56% 3.5 mph NNW5.6 kmh NNW 9.2 mph14.8 kmh 30.29 in1025.7 mb - 0.00 in0.0 mm 0.00 in0.0 mm
12:05 PM 49.0°F9.4°C 33.9°F1.1°C 56% 3.5 mph NE5.6 kmh NE 8.1 mph13.0 kmh 30.29 in1025.7 mb - 0.00 in0.0 mm 0.00 in0.0 mm
12:10 PM 48.5°F9.2°C 34.0°F1.1°C 57% 4.6 mph NE7.4 kmh NE 5.8 mph9.3 kmh 30.29 in1025.7 mb - 0.00 in0.0 mm 0.00 in0.0 mm
12:15 PM 48.4°F9.1°C 34.2°F1.2°C 58% 5.8 mph NE9.3 kmh NE 11.5 mph18.5 kmh 30.29 in1025.7 mb - 0.00 in0.0 mm 0.00 in0.0 mm
12:20 PM 48.3°F9.1°C 33.8°F1.0°C 57% 4.6 mph N7.4 kmh N 4.6 mph7.4 kmh 30.29 in1025.7 mb - 0.00 in0.0 mm 0.00 in0.0 mm
12:25 PM 48.2°F9.0°C 35.0°F1.7°C 60% 6.9 mph NE11.1 kmh NE 10.4 mph16.7 kmh 30.29 in1025.7 mb - 0.00 in0.0 mm 0.00 in0.0 mm
12:30 PM 48.2°F9.0°C 34.1°F1.2°C 58% 6.9 mph N11.1 kmh N 9.2 mph14.8 kmh 30.28 in1025.4 mb - 0.00 in0.0 mm 0.00 in0.0 mm
12:35 PM 48.3°F9.1°C 34.2°F1.2°C 58% 6.9 mph NNE11.1 kmh NNE 11.5 mph18.5 kmh 30.28 in1025.4 mb - 0.00 in0.0 mm 0.00 in0.0 mm
12:40 PM 48.3°F9.1°C 34.2°F1.2°C 58% 8.1 mph NE13.0 kmh NE 12.7 mph20.4 kmh 30.28 in1025.4 mb - 0.00 in0.0 mm 0.00 in0.0 mm
12:45 PM 48.2°F9.0°C 34.5°F1.4°C 59% 3.5 mph NE5.6 kmh NE 6.9 mph11.1 kmh 30.27 in1025.1 mb - 0.00 in0.0 mm 0.00 in0.0 mm
12:50 PM 48.5°F9.2°C 33.9°F1.1°C 57% 4.6 mph NE7.4 kmh NE 6.9 mph11.1 kmh 30.27 in1025.1 mb - 0.00 in0.0 mm 0.00 in0.0 mm
12:55 PM 48.7°F9.3°C 33.7°F0.9°C 56% 6.9 mph ENE11.1 kmh ENE 11.5 mph18.5 kmh 30.27 in1025.1 mb - 0.00 in0.0 mm 0.00 in0.0 mm
01:00 PM 48.8°F9.3°C 34.2°F1.2°C 57% 5.8 mph E9.3 kmh E 11.5 mph18.5 kmh 30.26 in1024.7 mb - 0.00 in0.0 mm 0.00 in0.0 mm
01:05 PM 48.7°F9.3°C 34.1°F1.2°C 57% 6.9 mph E11.1 kmh E 9.2 mph14.8 kmh 30.26 in1024.7 mb - 0.00 in0.0 mm 0.00 in0.0 mm
01:10 PM 48.6°F9.2°C 34.0°F1.1°C 57% 8.1 mph E13.0 kmh E 12.7 mph20.4 kmh 30.26 in1024.7 mb - 0.00 in0.0 mm 0.00 in0.0 mm
01:15 PM 48.5°F9.2°C 33.9°F1.1°C 57% 9.2 mph E14.8 kmh E 10.4 mph16.7 kmh 30.25 in1024.4 mb - 0.00 in0.0 mm 0.00 in0.0 mm
01:20 PM 48.6°F9.2°C 34.0°F1.1°C 57% 4.6 mph ENE7.4 kmh ENE 9.2 mph14.8 kmh 30.25 in1024.4 mb - 0.00 in0.0 mm 0.00 in0.0 mm
01:25 PM 48.7°F9.3°C 33.7°F0.9°C 56% 5.8 mph ENE9.3 kmh ENE 11.5 mph18.5 kmh 30.25 in1024.4 mb - 0.00 in0.0 mm 0.00 in0.0 mm
01:30 PM 48.8°F9.3°C 32.9°F0.5°C 54% 5.8 mph ENE9.3 kmh ENE 8.1 mph13.0 kmh 30.25 in1024.4 mb - 0.00 in0.0 mm 0.00 in0.0 mm
01:35 PM 48.8°F9.3°C 33.3°F0.7°C 55% 4.6 mph NE7.4 kmh NE 6.9 mph11.1 kmh 30.25 in1024.4 mb - 0.00 in0.0 mm 0.00 in0.0 mm
01:40 PM 48.8°F9.3°C 32.5°F0.3°C 53% 8.1 mph E13.0 kmh E 8.1 mph13.0 kmh 30.25 in1024.4 mb - 0.00 in0.0 mm 0.00 in0.0 mm
01:45 PM 48.8°F9.3°C 32.9°F0.5°C 54% 3.5 mph E5.6 kmh E 3.5 mph5.6 kmh 30.25 in1024.4 mb - 0.00 in0.0 mm 0.00 in0.0 mm
01:50 PM 49.0°F9.4°C 33.5°F0.8°C 55% 6.9 mph ENE11.1 kmh ENE 10.4 mph16.7 kmh 30.25 in1024.4 mb - 0.00 in0.0 mm 0.00 in0.0 mm
01:55 PM 48.7°F9.3°C 32.8°F0.4°C 54% 5.8 mph ENE9.3 kmh ENE 11.5 mph18.5 kmh 30.25 in1024.4 mb - 0.00 in0.0 mm 0.00 in0.0 mm
02:00 PM 48.5°F9.2°C 33.1°F0.6°C 55% 4.6 mph NE7.4 kmh NE 8.1 mph13.0 kmh 30.25 in1024.4 mb - 0.00 in0.0 mm 0.00 in0.0 mm
02:05 PM 48.6°F9.2°C 32.7°F0.4°C 54% 5.8 mph NE9.3 kmh NE 6.9 mph11.1 kmh 30.25 in1024.4 mb - 0.00 in0.0 mm 0.00 in0.0 mm
02:10 PM 48.5°F9.2°C 31.7°F-0.2°C 52% 5.8 mph NE9.3 kmh NE 9.2 mph14.8 kmh 30.24 in1024.0 mb - 0.00 in0.0 mm 0.00 in0.0 mm
02:15 PM 48.4°F9.1°C 32.5°F0.3°C 54% 4.6 mph NE7.4 kmh NE 6.9 mph11.1 kmh 30.24 in1024.0 mb - 0.00 in0.0 mm 0.00 in0.0 mm
02:20 PM 48.3°F9.1°C 32.5°F0.3°C 54% 2.3 mph ENE3.7 kmh ENE 3.5 mph5.6 kmh 30.24 in1024.0 mb - 0.00 in0.0 mm 0.00 in0.0 mm
02:25 PM 48.4°F9.1°C 32.5°F0.3°C 54% 3.5 mph E5.6 kmh E 4.6 mph7.4 kmh 30.24 in1024.0 mb - 0.00 in0.0 mm 0.00 in0.0 mm
02:30 PM 48.4°F9.1°C 32.0°F0.0°C 53% 1.2 mph E1.9 kmh E 3.5 mph5.6 kmh 30.24 in1024.0 mb - 0.00 in0.0 mm 0.00 in0.0 mm
02:35 PM 48.3°F9.1°C 32.4°F0.2°C 54% 2.3 mph NE3.7 kmh NE 3.5 mph5.6 kmh 30.24 in1024.0 mb - 0.00 in0.0 mm 0.00 in0.0 mm
02:40 PM 48.2°F9.0°C 32.3°F0.2°C 54% 4.6 mph NE7.4 kmh NE 5.8 mph9.3 kmh 30.24 in1024.0 mb - 0.00 in0.0 mm 0.00 in0.0 mm
02:45 PM 48.0°F8.9°C 32.6°F0.3°C 55% 5.8 mph NE9.3 kmh NE 8.1 mph13.0 kmh 30.24 in1024.0 mb - 0.00 in0.0 mm 0.00 in0.0 mm
02:50 PM 47.6°F8.7°C 32.2°F0.1°C 55% 4.6 mph NE7.4 kmh NE 6.9 mph11.1 kmh 30.24 in1024.0 mb - 0.00 in0.0 mm 0.00 in0.0 mm
02:55 PM 47.3°F8.5°C 31.5°F-0.3°C 54% 2.3 mph NNE3.7 kmh NNE 3.5 mph5.6 kmh 30.23 in1023.7 mb - 0.00 in0.0 mm 0.00 in0.0 mm
03:00 PM 47.1°F8.4°C 31.7°F-0.2°C 55% 1.2 mph NE1.9 kmh NE 4.6 mph7.4 kmh 30.23 in1023.7 mb - 0.00 in0.0 mm 0.00 in0.0 mm
03:05 PM 47.1°F8.4°C 31.7°F-0.2°C 55% 2.3 mph E3.7 kmh E 3.5 mph5.6 kmh 30.23 in1023.7 mb - 0.00 in0.0 mm 0.00 in0.0 mm
03:10 PM 47.2°F8.4°C 31.8°F-0.1°C 55% 2.3 mph E3.7 kmh E 3.5 mph5.6 kmh 30.23 in1023.7 mb - 0.00 in0.0 mm 0.00 in0.0 mm
03:15 PM 47.2°F8.4°C 32.3°F0.2°C 56% 1.2 mph NE1.9 kmh NE 2.3 mph3.7 kmh 30.23 in1023.7 mb - 0.00 in0.0 mm 0.00 in0.0 mm
03:20 PM 47.2°F8.4°C 32.3°F0.2°C 56% 2.3 mph E3.7 kmh E 3.5 mph5.6 kmh 30.23 in1023.7 mb - 0.00 in0.0 mm 0.00 in0.0 mm
03:25 PM 47.2°F8.4°C 33.2°F0.7°C 58% 4.6 mph NE7.4 kmh NE 11.5 mph18.5 kmh 30.23 in1023.7 mb - 0.00 in0.0 mm 0.00 in0.0 mm
03:30 PM 47.2°F8.4°C 33.2°F0.7°C 58% 4.6 mph NNE7.4 kmh NNE 11.5 mph18.5 kmh 30.23 in1023.7 mb - 0.00 in0.0 mm 0.00 in0.0 mm
03:35 PM 47.1°F8.4°C 32.6°F0.3°C 57% 4.6 mph ENE7.4 kmh ENE 6.9 mph11.1 kmh 30.23 in1023.7 mb - 0.00 in0.0 mm 0.00 in0.0 mm
03:40 PM 46.9°F8.3°C 32.5°F0.3°C 57% 2.3 mph ENE3.7 kmh ENE 3.5 mph5.6 kmh 30.22 in1023.4 mb - 0.00 in0.0 mm 0.00 in0.0 mm
03:45 PM 46.8°F8.2°C 32.8°F0.4°C 58% 4.6 mph ENE7.4 kmh ENE 4.6 mph7.4 kmh 30.23 in1023.7 mb - 0.00 in0.0 mm 0.00 in0.0 mm
03:50 PM 46.7°F8.2°C 33.1°F0.6°C 59% 4.6 mph E7.4 kmh E 5.8 mph9.3 kmh 30.22 in1023.4 mb - 0.00 in0.0 mm 0.00 in0.0 mm
03:55 PM 46.5°F8.1°C 33.4°F0.8°C 60% 1.2 mph ESE1.9 kmh ESE 2.3 mph3.7 kmh 30.22 in1023.4 mb - 0.00 in0.0 mm 0.00 in0.0 mm
04:00 PM 46.2°F7.9°C 33.5°F0.8°C 61% Calm Calm -- 30.22 in1023.4 mb - 0.00 in0.0 mm 0.00 in0.0 mm
04:05 PM 45.9°F7.7°C 33.2°F0.7°C 61% 1.2 mph E1.9 kmh E 3.5 mph5.6 kmh 30.22 in1023.4 mb - 0.00 in0.0 mm 0.00 in0.0 mm
04:10 PM 45.6°F7.6°C 33.4°F0.8°C 62% 3.5 mph NE5.6 kmh NE 4.6 mph7.4 kmh 30.22 in1023.4 mb - 0.00 in0.0 mm 0.00 in0.0 mm
04:15 PM 45.6°F7.6°C 33.3°F0.7°C 62% 2.3 mph NNE3.7 kmh NNE 3.5 mph5.6 kmh 30.22 in1023.4 mb - 0.00 in0.0 mm 0.00 in0.0 mm
04:20 PM 45.4°F7.4°C 33.2°F0.7°C 62% 2.3 mph ENE3.7 kmh ENE 3.5 mph5.6 kmh 30.22 in1023.4 mb - 0.00 in0.0 mm 0.00 in0.0 mm
04:25 PM 45.2°F7.3°C 33.3°F0.7°C 63% Calm Calm -- 30.22 in1023.4 mb - 0.00 in0.0 mm 0.00 in0.0 mm
04:30 PM 44.7°F7.1°C 33.3°F0.7°C 64% Calm Calm -- 30.22 in1023.4 mb - 0.00 in0.0 mm 0.00 in0.0 mm
04:35 PM 44.2°F6.8°C 33.1°F0.6°C 65% 1.2 mph ENE1.9 kmh ENE 2.3 mph3.7 kmh 30.22 in1023.4 mb - 0.00 in0.0 mm 0.00 in0.0 mm
04:40 PM 43.7°F6.5°C 33.0°F0.6°C 66% 1.2 mph ENE1.9 kmh ENE 2.3 mph3.7 kmh 30.22 in1023.4 mb - 0.00 in0.0 mm 0.00 in0.0 mm
04:45 PM 43.1°F6.2°C 32.6°F0.3°C 66% 1.2 mph NNW1.9 kmh NNW 2.3 mph3.7 kmh 30.22 in1023.4 mb - 0.00 in0.0 mm 0.00 in0.0 mm
04:50 PM 42.7°F5.9°C 32.5°F0.3°C 67% 2.3 mph N3.7 kmh N 3.5 mph5.6 kmh 30.22 in1023.4 mb - 0.00 in0.0 mm 0.00 in0.0 mm
04:55 PM 42.2°F5.7°C 32.8°F0.4°C 69% 1.2 mph SE1.9 kmh SE 1.2 mph1.9 kmh 30.22 in1023.4 mb - 0.00 in0.0 mm 0.00 in0.0 mm
05:00 PM 41.8°F5.4°C 32.7°F0.4°C 70% Calm Calm 2.3 mph3.7 kmh 30.22 in1023.4 mb - 0.00 in0.0 mm 0.00 in0.0 mm
05:05 PM 41.4°F5.2°C 32.4°F0.2°C 70% 1.2 mph NNW1.9 kmh NNW 2.3 mph3.7 kmh 30.21 in1023.0 mb - 0.00 in0.0 mm 0.00 in0.0 mm
05:10 PM 41.1°F5.1°C 32.4°F0.2°C 71% 2.3 mph NNW3.7 kmh NNW 3.5 mph5.6 kmh 30.21 in1023.0 mb - 0.00 in0.0 mm 0.00 in0.0 mm
05:15 PM 40.8°F4.9°C 31.8°F-0.1°C 70% 1.2 mph NNW1.9 kmh NNW 2.3 mph3.7 kmh 30.21 in1023.0 mb - 0.00 in0.0 mm 0.00 in0.0 mm
05:20 PM 40.5°F4.7°C 31.9°F-0.1°C 71% Calm Calm 3.5 mph5.6 kmh 30.22 in1023.4 mb - 0.00 in0.0 mm 0.00 in0.0 mm
05:25 PM 40.2°F4.6°C 31.5°F-0.3°C 71% Calm Calm -- 30.22 in1023.4 mb - 0.00 in0.0 mm 0.00 in0.0 mm
05:30 PM 40.1°F4.5°C 31.8°F-0.1°C 72% 2.3 mph NNE3.7 kmh NNE 3.5 mph5.6 kmh 30.22 in1023.4 mb - 0.00 in0.0 mm 0.00 in0.0 mm
05:35 PM 40.1°F4.5°C 31.8°F-0.1°C 72% 3.5 mph N5.6 kmh N 4.6 mph7.4 kmh 30.22 in1023.4 mb - 0.00 in0.0 mm 0.00 in0.0 mm
05:40 PM 40.1°F4.5°C 32.5°F0.3°C 74% 2.3 mph NNW3.7 kmh NNW 2.3 mph3.7 kmh 30.22 in1023.4 mb - 0.00 in0.0 mm 0.00 in0.0 mm
05:45 PM 40.0°F4.4°C 31.7°F-0.2°C 72% Calm Calm 3.5 mph5.6 kmh 30.22 in1023.4 mb - 0.00 in0.0 mm 0.00 in0.0 mm
05:50 PM 39.9°F4.4°C 31.9°F-0.1°C 73% 1.2 mph ENE1.9 kmh ENE 2.3 mph3.7 kmh 30.22 in1023.4 mb - 0.00 in0.0 mm 0.00 in0.0 mm
05:55 PM 39.8°F4.3°C 31.8°F-0.1°C 73% 2.3 mph NE3.7 kmh NE 3.5 mph5.6 kmh 30.22 in1023.4 mb - 0.00 in0.0 mm 0.00 in0.0 mm
06:00 PM 39.5°F4.2°C 31.9°F-0.1°C 74% Calm Calm -- 30.22 in1023.4 mb - 0.00 in0.0 mm 0.00 in0.0 mm
06:05 PM 39.2°F4.0°C 31.6°F-0.2°C 74% Calm Calm -- 30.22 in1023.4 mb - 0.00 in0.0 mm 0.00 in0.0 mm
06:10 PM 38.8°F3.8°C 31.2°F-0.4°C 74% Calm Calm -- 30.22 in1023.4 mb - 0.00 in0.0 mm 0.00 in0.0 mm
06:15 PM 38.5°F3.6°C 31.2°F-0.4°C 75% Calm Calm -- 30.22 in1023.4 mb - 0.00 in0.0 mm 0.00 in0.0 mm
06:20 PM 38.2°F3.4°C 31.3°F-0.4°C 76% 1.2 mph NE1.9 kmh NE 3.5 mph5.6 kmh 30.22 in1023.4 mb - 0.00 in0.0 mm 0.00 in0.0 mm
06:25 PM 38.0°F3.3°C 31.1°F-0.5°C 76% 2.3 mph NNE3.7 kmh NNE 3.5 mph5.6 kmh 30.22 in1023.4 mb - 0.00 in0.0 mm 0.00 in0.0 mm
06:30 PM 37.9°F3.3°C 31.3°F-0.4°C 77% 1.2 mph NNE1.9 kmh NNE 2.3 mph3.7 kmh 30.22 in1023.4 mb - 0.00 in0.0 mm 0.00 in0.0 mm
06:35 PM 37.9°F3.3°C 31.3°F-0.4°C 77% 1.2 mph NNE1.9 kmh NNE 2.3 mph3.7 kmh 30.21 in1023.0 mb - 0.00 in0.0 mm 0.00 in0.0 mm
06:40 PM 37.8°F3.2°C 31.2°F-0.4°C 77% 1.2 mph NNE1.9 kmh NNE 1.2 mph1.9 kmh 30.21 in1023.0 mb - 0.00 in0.0 mm 0.00 in0.0 mm
06:45 PM 37.7°F3.2°C 31.5°F-0.3°C 78% 1.2 mph NNE1.9 kmh NNE 2.3 mph3.7 kmh 30.21 in1023.0 mb - 0.00 in0.0 mm 0.00 in0.0 mm
06:50 PM 37.7°F3.2°C 31.5°F-0.3°C 78% 2.3 mph NNE3.7 kmh NNE 3.5 mph5.6 kmh 30.21 in1023.0 mb - 0.00 in0.0 mm 0.00 in0.0 mm
06:55 PM 37.7°F3.2°C 31.5°F-0.3°C 78% 1.2 mph NNE1.9 kmh NNE 3.5 mph5.6 kmh 30.21 in1023.0 mb - 0.00 in0.0 mm 0.00 in0.0 mm
07:00 PM 37.6°F3.1°C 31.4°F-0.3°C 78% 2.3 mph NNE3.7 kmh NNE 3.5 mph5.6 kmh 30.20 in1022.7 mb - 0.00 in0.0 mm 0.00 in0.0 mm
07:05 PM 37.5°F3.1°C 31.3°F-0.4°C 78% 1.2 mph NNE1.9 kmh NNE 3.5 mph5.6 kmh 30.21 in1023.0 mb - 0.00 in0.0 mm 0.00 in0.0 mm
07:10 PM 37.3°F2.9°C 31.1°F-0.5°C 78% 1.2 mph NNE1.9 kmh NNE 2.3 mph3.7 kmh 30.21 in1023.0 mb - 0.00 in0.0 mm 0.00 in0.0 mm
07:15 PM 37.3°F2.9°C 31.4°F-0.3°C 79% 2.3 mph NNE3.7 kmh NNE 2.3 mph3.7 kmh 30.20 in1022.7 mb - 0.00 in0.0 mm 0.00 in0.0 mm
07:20 PM 37.2°F2.9°C 31.3°F-0.4°C 79% 2.3 mph NNE3.7 kmh NNE 3.5 mph5.6 kmh 30.20 in1022.7 mb - 0.00 in0.0 mm 0.00 in0.0 mm
07:25 PM 37.1°F2.8°C 31.2°F-0.4°C 79% 2.3 mph NNE3.7 kmh NNE 3.5 mph5.6 kmh 30.20 in1022.7 mb - 0.00 in0.0 mm 0.00 in0.0 mm
07:30 PM 36.9°F2.7°C 31.0°F-0.6°C 79% Calm Calm -- 30.20 in1022.7 mb - 0.00 in0.0 mm 0.00 in0.0 mm
07:35 PM 36.8°F2.7°C 30.9°F-0.6°C 79% Calm Calm -- 30.20 in1022.7 mb - 0.00 in0.0 mm 0.00 in0.0 mm
07:40 PM 37.0°F2.8°C 31.1°F-0.5°C 79% 2.3 mph NNE3.7 kmh NNE 3.5 mph5.6 kmh 30.20 in1022.7 mb - 0.00 in0.0 mm 0.00 in0.0 mm
07:45 PM 37.1°F2.8°C 31.5°F-0.3°C 80% 2.3 mph NE3.7 kmh NE 3.5 mph5.6 kmh 30.20 in1022.7 mb - 0.00 in0.0 mm 0.00 in0.0 mm
07:50 PM 37.3°F2.9°C 31.7°F-0.2°C 80% 2.3 mph NE3.7 kmh NE 3.5 mph5.6 kmh 30.20 in1022.7 mb - 0.00 in0.0 mm 0.00 in0.0 mm
07:55 PM 37.3°F2.9°C 31.7°F-0.2°C 80% 2.3 mph NE3.7 kmh NE 3.5 mph5.6 kmh 30.19 in1022.4 mb - 0.00 in0.0 mm 0.00 in0.0 mm
08:00 PM 37.4°F3.0°C 31.8°F-0.1°C 80% 2.3 mph NE3.7 kmh NE 2.3 mph3.7 kmh 30.19 in1022.4 mb - 0.00 in0.0 mm 0.00 in0.0 mm
08:05 PM 37.3°F2.9°C 31.7°F-0.2°C 80% 1.2 mph NE1.9 kmh NE 2.3 mph3.7 kmh 30.19 in1022.4 mb - 0.00 in0.0 mm 0.00 in0.0 mm
08:10 PM 37.0°F2.8°C 31.4°F-0.3°C 80% 2.3 mph NE3.7 kmh NE 3.5 mph5.6 kmh 30.18 in1022.0 mb - 0.00 in0.0 mm 0.00 in0.0 mm
08:15 PM 36.8°F2.7°C 31.2°F-0.4°C 80% 2.3 mph NE3.7 kmh NE 3.5 mph5.6 kmh 30.18 in1022.0 mb - 0.00 in0.0 mm 0.00 in0.0 mm
08:20 PM 36.5°F2.5°C 30.9°F-0.6°C 80% 2.3 mph NE3.7 kmh NE 3.5 mph5.6 kmh 30.18 in1022.0 mb - 0.00 in0.0 mm 0.00 in0.0 mm
08:25 PM 36.2°F2.3°C 30.7°F-0.7°C 80% 3.5 mph NE5.6 kmh NE 4.6 mph7.4 kmh 30.18 in1022.0 mb - 0.00 in0.0 mm 0.00 in0.0 mm
08:30 PM 36.0°F2.2°C 30.4°F-0.9°C 80% 2.3 mph NE3.7 kmh NE 3.5 mph5.6 kmh 30.18 in1022.0 mb - 0.00 in0.0 mm 0.00 in0.0 mm
08:35 PM 35.6°F2.0°C 30.0°F-1.1°C 80% 3.5 mph NE5.6 kmh NE 3.5 mph5.6 kmh 30.18 in1022.0 mb - 0.00 in0.0 mm 0.00 in0.0 mm
08:40 PM 35.2°F1.8°C 29.6°F-1.3°C 80% 3.5 mph NE5.6 kmh NE 3.5 mph5.6 kmh 30.18 in1022.0 mb - 0.00 in0.0 mm 0.00 in0.0 mm
08:45 PM 34.7°F1.5°C 29.1°F-1.6°C 80% 4.6 mph ENE7.4 kmh ENE 4.6 mph7.4 kmh 30.18 in1022.0 mb - 0.00 in0.0 mm 0.00 in0.0 mm
08:50 PM 34.3°F1.3°C 28.8°F-1.8°C 80% 3.5 mph E5.6 kmh E 4.6 mph7.4 kmh 30.18 in1022.0 mb - 0.00 in0.0 mm 0.00 in0.0 mm
08:55 PM 34.2°F1.2°C 28.7°F-1.8°C 80% 3.5 mph E5.6 kmh E 3.5 mph5.6 kmh 30.18 in1022.0 mb - 0.00 in0.0 mm 0.00 in0.0 mm
09:00 PM 34.1°F1.2°C 28.6°F-1.9°C 80% 1.2 mph E1.9 kmh E 2.3 mph3.7 kmh 30.18 in1022.0 mb - 0.00 in0.0 mm 0.00 in0.0 mm
09:05 PM 34.0°F1.1°C 28.5°F-1.9°C 80% 2.3 mph E3.7 kmh E 3.5 mph5.6 kmh 30.17 in1021.7 mb - 0.00 in0.0 mm 0.00 in0.0 mm
09:10 PM 33.9°F1.1°C 28.4°F-2.0°C 80% 2.3 mph ENE3.7 kmh ENE 3.5 mph5.6 kmh 30.17 in1021.7 mb - 0.00 in0.0 mm 0.00 in0.0 mm
09:15 PM 33.8°F1.0°C 28.3°F-2.1°C 80% 3.5 mph ENE5.6 kmh ENE 3.5 mph5.6 kmh 30.17 in1021.7 mb - 0.00 in0.0 mm 0.00 in0.0 mm
09:20 PM 33.8°F1.0°C 28.3°F-2.1°C 80% 2.3 mph ENE3.7 kmh ENE 3.5 mph5.6 kmh 30.17 in1021.7 mb - 0.00 in0.0 mm 0.00 in0.0 mm
09:25 PM 33.6°F0.9°C 28.1°F-2.2°C 80% 2.3 mph NE3.7 kmh NE 3.5 mph5.6 kmh 30.16 in1021.3 mb - 0.00 in0.0 mm 0.00 in0.0 mm
09:30 PM 33.4°F0.8°C 27.9°F-2.3°C 80% 2.3 mph NE3.7 kmh NE 3.5 mph5.6 kmh 30.16 in1021.3 mb - 0.00 in0.0 mm 0.00 in0.0 mm
09:35 PM 33.6°F0.9°C 28.1°F-2.2°C 80% 2.3 mph NE3.7 kmh NE 3.5 mph5.6 kmh 30.16 in1021.3 mb - 0.00 in0.0 mm 0.00 in0.0 mm
09:40 PM 33.8°F1.0°C 28.3°F-2.1°C 80% 2.3 mph NE3.7 kmh NE 3.5 mph5.6 kmh 30.16 in1021.3 mb - 0.00 in0.0 mm 0.00 in0.0 mm
09:45 PM 33.9°F1.1°C 28.4°F-2.0°C 80% 1.2 mph NE1.9 kmh NE 1.2 mph1.9 kmh 30.16 in1021.3 mb - 0.00 in0.0 mm 0.00 in0.0 mm
09:50 PM 33.4°F0.8°C 27.9°F-2.3°C 80% 2.3 mph WSW3.7 kmh WSW 2.3 mph3.7 kmh 30.16 in1021.3 mb - 0.00 in0.0 mm 0.00 in0.0 mm
09:55 PM 32.9°F0.5°C 27.4°F-2.6°C 80% 1.2 mph WSW1.9 kmh WSW 2.3 mph3.7 kmh 30.16 in1021.3 mb - 0.00 in0.0 mm 0.00 in0.0 mm
10:00 PM 32.5°F0.3°C 27.0°F-2.8°C 80% 1.2 mph WSW1.9 kmh WSW 1.2 mph1.9 kmh 30.16 in1021.3 mb - 0.00 in0.0 mm 0.00 in0.0 mm
10:05 PM 32.3°F0.2°C 26.8°F-2.9°C 80% Calm Calm -- 30.15 in1021.0 mb - 0.00 in0.0 mm 0.00 in0.0 mm
10:10 PM 32.1°F0.1°C 26.6°F-3.0°C 80% Calm Calm 1.2 mph1.9 kmh 30.15 in1021.0 mb - 0.00 in0.0 mm 0.00 in0.0 mm
10:15 PM 32.2°F0.1°C 26.7°F-2.9°C 80% 1.2 mph WSW1.9 kmh WSW 2.3 mph3.7 kmh 30.15 in1021.0 mb - 0.00 in0.0 mm 0.00 in0.0 mm
10:20 PM 32.2°F0.1°C 26.7°F-2.9°C 80% Calm Calm -- 30.15 in1021.0 mb - 0.00 in0.0 mm 0.00 in0.0 mm
10:25 PM 32.0°F0.0°C 26.5°F-3.1°C 80% Calm Calm -- 30.15 in1021.0 mb - 0.00 in0.0 mm 0.00 in0.0 mm
10:30 PM 31.9°F-0.1°C 26.4°F-3.1°C 80% Calm Calm -- 30.15 in1021.0 mb - 0.00 in0.0 mm 0.00 in0.0 mm
10:35 PM 31.9°F-0.1°C 26.4°F-3.1°C 80% 1.2 mph WSW1.9 kmh WSW 2.3 mph3.7 kmh 30.14 in1020.7 mb - 0.00 in0.0 mm 0.00 in0.0 mm
10:40 PM 31.9°F-0.1°C 26.1°F-3.3°C 79% 2.3 mph WSW3.7 kmh WSW 3.5 mph5.6 kmh 30.14 in1020.7 mb - 0.00 in0.0 mm 0.00 in0.0 mm
10:45 PM 31.9°F-0.1°C 26.4°F-3.1°C 80% 1.2 mph WSW1.9 kmh WSW 3.5 mph5.6 kmh 30.14 in1020.7 mb - 0.00 in0.0 mm 0.00 in0.0 mm
10:50 PM 32.0°F0.0°C 26.2°F-3.2°C 79% 2.3 mph WSW3.7 kmh WSW 3.5 mph5.6 kmh 30.14 in1020.7 mb - 0.00 in0.0 mm 0.00 in0.0 mm
10:55 PM 32.3°F0.2°C 26.5°F-3.1°C 79% 3.5 mph ENE5.6 kmh ENE 4.6 mph7.4 kmh 30.14 in1020.7 mb - 0.00 in0.0 mm 0.00 in0.0 mm
11:00 PM 32.4°F0.2°C 26.6°F-3.0°C 79% 3.5 mph ENE5.6 kmh ENE 3.5 mph5.6 kmh 30.14 in1020.7 mb - 0.00 in0.0 mm 0.00 in0.0 mm
11:05 PM 32.0°F0.0°C 26.2°F-3.2°C 79% 2.3 mph ENE3.7 kmh ENE 3.5 mph5.6 kmh 30.13 in1020.3 mb - 0.00 in0.0 mm 0.00 in0.0 mm
11:10 PM 31.8°F-0.1°C 26.0°F-3.3°C 79% 3.5 mph E5.6 kmh E 3.5 mph5.6 kmh 30.13 in1020.3 mb - 0.00 in0.0 mm 0.00 in0.0 mm
11:15 PM 31.8°F-0.1°C 26.0°F-3.3°C 79% 2.3 mph E3.7 kmh E 3.5 mph5.6 kmh 30.13 in1020.3 mb - 0.00 in0.0 mm 0.00 in0.0 mm
11:20 PM 31.7°F-0.2°C 25.9°F-3.4°C 79% 3.5 mph ENE5.6 kmh ENE 3.5 mph5.6 kmh 30.13 in1020.3 mb - 0.00 in0.0 mm 0.00 in0.0 mm
11:25 PM 31.5°F-0.3°C 25.7°F-3.5°C 79% 3.5 mph E5.6 kmh E 4.6 mph7.4 kmh 30.13 in1020.3 mb - 0.00 in0.0 mm 0.00 in0.0 mm
11:30 PM 31.4°F-0.3°C 25.6°F-3.6°C 79% 2.3 mph E3.7 kmh E 3.5 mph5.6 kmh 30.12 in1020.0 mb - 0.00 in0.0 mm 0.00 in0.0 mm
11:35 PM 31.1°F-0.5°C 25.4°F-3.7°C 79% 1.2 mph E1.9 kmh E 2.3 mph3.7 kmh 30.12 in1020.0 mb - 0.00 in0.0 mm 0.00 in0.0 mm
11:40 PM 30.8°F-0.7°C 25.1°F-3.8°C 79% 2.3 mph E3.7 kmh E 3.5 mph5.6 kmh 30.12 in1020.0 mb - 0.00 in0.0 mm 0.00 in0.0 mm
11:45 PM 30.7°F-0.7°C 25.0°F-3.9°C 79% Calm Calm -- 30.12 in1020.0 mb - 0.00 in0.0 mm 0.00 in0.0 mm
11:50 PM 30.5°F-0.8°C 24.8°F-4.0°C 79% Calm Calm -- 30.12 in1020.0 mb - 0.00 in0.0 mm 0.00 in0.0 mm
11:55 PM 30.2°F-1.0°C 24.4°F-4.2°C 79% Calm Calm -- 30.12 in1020.0 mb - 0.00 in0.0 mm 0.00 in0.0 mm